sensor_id;sensor_type;location;lat;lon;timestamp;temperature;humidity
981;DHT22;479;53.514;9.994;2024-01-30T00:00:22;5.00;99.90
981;DHT22;479;53.514;9.994;2024-01-30T00:02:49;4.90;99.90
981;DHT22;479;53.514;9.994;2024-01-30T00:05:15;4.90;99.90
981;DHT22;479;53.514;9.994;2024-01-30T00:07:44;4.80;99.90
981;DHT22;479;53.514;9.994;2024-01-30T00:10:11;4.80;99.90
981;DHT22;479;53.514;9.994;2024-01-30T00:12:37;4.80;99.90
981;DHT22;479;53.514;9.994;2024-01-30T00:15:05;4.80;99.90
981;DHT22;479;53.514;9.994;2024-01-30T00:17:35;4.80;99.90
981;DHT22;479;53.514;9.994;2024-01-30T00:20:03;4.80;99.90
981;DHT22;479;53.514;9.994;2024-01-30T00:22:31;4.90;99.90
981;DHT22;479;53.514;9.994;2024-01-30T00:24:59;4.80;99.90
981;DHT22;479;53.514;9.994;2024-01-30T00:27:26;4.80;99.90
981;DHT22;479;53.514;9.994;2024-01-30T00:29:53;4.70;99.90
981;DHT22;479;53.514;9.994;2024-01-30T00:32:20;4.70;99.90
981;DHT22;479;53.514;9.994;2024-01-30T00:34:48;4.60;99.90
981;DHT22;479;53.514;9.994;2024-01-30T00:37:15;4.60;99.90
981;DHT22;479;53.514;9.994;2024-01-30T00:39:42;4.60;99.90
981;DHT22;479;53.514;9.994;2024-01-30T00:42:10;4.50;99.90
981;DHT22;479;53.514;9.994;2024-01-30T00:44:38;4.50;99.90
981;DHT22;479;53.514;9.994;2024-01-30T00:47:05;4.50;99.90
981;DHT22;479;53.514;9.994;2024-01-30T00:49:32;4.50;99.90
981;DHT22;479;53.514;9.994;2024-01-30T00:52:00;4.50;99.90
981;DHT22;479;53.514;9.994;2024-01-30T00:54:27;4.50;99.90
981;DHT22;479;53.514;9.994;2024-01-30T00:56:54;4.40;99.90
981;DHT22;479;53.514;9.994;2024-01-30T00:59:22;4.40;99.90
981;DHT22;479;53.514;9.994;2024-01-30T01:01:49;4.40;99.90
981;DHT22;479;53.514;9.994;2024-01-30T01:04:16;4.40;99.90
981;DHT22;479;53.514;9.994;2024-01-30T01:06:44;4.40;99.90
981;DHT22;479;53.514;9.994;2024-01-30T01:09:11;4.40;99.90
981;DHT22;479;53.514;9.994;2024-01-30T01:11:37;4.40;99.90
981;DHT22;479;53.514;9.994;2024-01-30T01:14:05;4.50;99.90
981;DHT22;479;53.514;9.994;2024-01-30T01:16:33;4.50;99.90
981;DHT22;479;53.514;9.994;2024-01-30T01:19:00;4.50;99.90
981;DHT22;479;53.514;9.994;2024-01-30T01:21:27;4.50;99.90
981;DHT22;479;53.514;9.994;2024-01-30T01:23:54;4.50;99.90
981;DHT22;479;53.514;9.994;2024-01-30T01:26:21;4.50;99.90
981;DHT22;479;53.514;9.994;2024-01-30T01:28:48;4.50;99.90
981;DHT22;479;53.514;9.994;2024-01-30T01:31:15;4.50;99.90
981;DHT22;479;53.514;9.994;2024-01-30T01:33:44;4.50;99.90
981;DHT22;479;53.514;9.994;2024-01-30T01:36:11;4.50;99.90
981;DHT22;479;53.514;9.994;2024-01-30T01:38:39;4.40;99.90
981;DHT22;479;53.514;9.994;2024-01-30T01:41:06;4.40;99.90
981;DHT22;479;53.514;9.994;2024-01-30T01:43:33;4.40;99.90
981;DHT22;479;53.514;9.994;2024-01-30T01:46:00;4.40;99.90
981;DHT22;479;53.514;9.994;2024-01-30T01:48:27;4.40;99.90
981;DHT22;479;53.514;9.994;2024-01-30T01:50:56;4.40;99.90
981;DHT22;479;53.514;9.994;2024-01-30T01:53:23;4.40;99.90
981;DHT22;479;53.514;9.994;2024-01-30T01:55:50;4.40;99.90
981;DHT22;479;53.514;9.994;2024-01-30T01:58:19;4.40;99.90
981;DHT22;479;53.514;9.994;2024-01-30T02:00:47;4.40;99.90
981;DHT22;479;53.514;9.994;2024-01-30T02:03:18;4.30;99.90
981;DHT22;479;53.514;9.994;2024-01-30T02:05:58;4.40;99.90
981;DHT22;479;53.514;9.994;2024-01-30T02:08:25;4.40;99.90
981;DHT22;479;53.514;9.994;2024-01-30T02:10:52;4.40;99.90
981;DHT22;479;53.514;9.994;2024-01-30T02:13:20;4.40;99.90
981;DHT22;479;53.514;9.994;2024-01-30T02:15:49;4.40;99.90
981;DHT22;479;53.514;9.994;2024-01-30T02:18:16;4.40;99.90
981;DHT22;479;53.514;9.994;2024-01-30T02:20:51;4.40;99.90
981;DHT22;479;53.514;9.994;2024-01-30T02:23:22;4.30;99.90
981;DHT22;479;53.514;9.994;2024-01-30T02:25:50;4.40;99.90
981;DHT22;479;53.514;9.994;2024-01-30T02:28:19;4.40;99.90
981;DHT22;479;53.514;9.994;2024-01-30T02:30:46;4.50;99.90
981;DHT22;479;53.514;9.994;2024-01-30T02:33:13;4.60;99.90
981;DHT22;479;53.514;9.994;2024-01-30T02:35:40;4.50;99.90
981;DHT22;479;53.514;9.994;2024-01-30T02:38:07;4.50;99.90
981;DHT22;479;53.514;9.994;2024-01-30T02:40:35;4.50;99.90
981;DHT22;479;53.514;9.994;2024-01-30T02:43:03;4.40;99.90
981;DHT22;479;53.514;9.994;2024-01-30T02:45:30;4.40;99.90
981;DHT22;479;53.514;9.994;2024-01-30T02:47:57;4.40;99.90
981;DHT22;479;53.514;9.994;2024-01-30T02:50:24;4.30;99.90
981;DHT22;479;53.514;9.994;2024-01-30T02:52:51;4.30;99.90
981;DHT22;479;53.514;9.994;2024-01-30T02:55:17;4.30;99.90
981;DHT22;479;53.514;9.994;2024-01-30T02:57:46;4.40;99.90
981;DHT22;479;53.514;9.994;2024-01-30T03:00:13;4.40;99.90
981;DHT22;479;53.514;9.994;2024-01-30T03:02:40;4.40;99.90
981;DHT22;479;53.514;9.994;2024-01-30T03:05:08;4.40;99.90
981;DHT22;479;53.514;9.994;2024-01-30T03:07:35;4.40;99.90
981;DHT22;479;53.514;9.994;2024-01-30T03:10:02;4.30;99.90
981;DHT22;479;53.514;9.994;2024-01-30T03:12:29;4.40;99.90
981;DHT22;479;53.514;9.994;2024-01-30T03:14:57;4.50;99.90
981;DHT22;479;53.514;9.994;2024-01-30T03:17:24;4.40;99.90
981;DHT22;479;53.514;9.994;2024-01-30T03:19:51;4.40;99.90
981;DHT22;479;53.514;9.994;2024-01-30T03:22:18;4.50;99.90
981;DHT22;479;53.514;9.994;2024-01-30T03:24:44;4.50;99.90
981;DHT22;479;53.514;9.994;2024-01-30T03:27:11;4.40;99.90
981;DHT22;479;53.514;9.994;2024-01-30T03:29:38;4.40;99.90
981;DHT22;479;53.514;9.994;2024-01-30T03:32:07;4.40;99.90
981;DHT22;479;53.514;9.994;2024-01-30T03:34:33;4.30;99.90
981;DHT22;479;53.514;9.994;2024-01-30T03:37:00;4.30;99.90
981;DHT22;479;53.514;9.994;2024-01-30T03:39:27;4.30;99.90
981;DHT22;479;53.514;9.994;2024-01-30T03:41:54;4.20;99.90
981;DHT22;479;53.514;9.994;2024-01-30T03:44:21;4.10;99.90
981;DHT22;479;53.514;9.994;2024-01-30T03:46:48;4.00;99.90
981;DHT22;479;53.514;9.994;2024-01-30T03:49:16;3.90;99.90
981;DHT22;479;53.514;9.994;2024-01-30T03:51:43;3.80;99.90
981;DHT22;479;53.514;9.994;2024-01-30T03:54:10;3.80;99.90
981;DHT22;479;53.514;9.994;2024-01-30T03:56:37;3.70;99.90
981;DHT22;479;53.514;9.994;2024-01-30T03:59:04;3.70;99.90
981;DHT22;479;53.514;9.994;2024-01-30T04:01:32;3.70;99.90
981;DHT22;479;53.514;9.994;2024-01-30T04:03:59;3.70;99.90
981;DHT22;479;53.514;9.994;2024-01-30T04:06:27;3.60;99.90
981;DHT22;479;53.514;9.994;2024-01-30T04:08:54;3.60;99.90
981;DHT22;479;53.514;9.994;2024-01-30T04:11:21;3.60;99.90
981;DHT22;479;53.514;9.994;2024-01-30T04:13:48;3.60;99.90
981;DHT22;479;53.514;9.994;2024-01-30T04:16:19;3.70;99.90
981;DHT22;479;53.514;9.994;2024-01-30T04:18:46;3.70;99.90
981;DHT22;479;53.514;9.994;2024-01-30T04:21:13;3.80;99.90
981;DHT22;479;53.514;9.994;2024-01-30T04:23:41;3.80;99.90
981;DHT22;479;53.514;9.994;2024-01-30T04:26:08;3.70;99.90
981;DHT22;479;53.514;9.994;2024-01-30T04:28:35;3.70;99.90
981;DHT22;479;53.514;9.994;2024-01-30T04:31:02;3.80;99.90
981;DHT22;479;53.514;9.994;2024-01-30T04:33:29;3.80;99.90
981;DHT22;479;53.514;9.994;2024-01-30T04:35:56;3.80;99.90
981;DHT22;479;53.514;9.994;2024-01-30T04:38:23;3.80;99.90
981;DHT22;479;53.514;9.994;2024-01-30T04:40:51;3.80;99.90
981;DHT22;479;53.514;9.994;2024-01-30T04:43:18;3.80;99.90
981;DHT22;479;53.514;9.994;2024-01-30T04:45:45;3.70;99.90
981;DHT22;479;53.514;9.994;2024-01-30T04:48:12;3.70;99.90
981;DHT22;479;53.514;9.994;2024-01-30T04:50:39;3.60;99.90
981;DHT22;479;53.514;9.994;2024-01-30T04:53:06;3.60;99.90
981;DHT22;479;53.514;9.994;2024-01-30T04:55:34;3.60;99.90
981;DHT22;479;53.514;9.994;2024-01-30T04:58:03;3.50;99.90
981;DHT22;479;53.514;9.994;2024-01-30T05:00:30;3.50;99.90
981;DHT22;479;53.514;9.994;2024-01-30T05:02:57;3.50;99.90
981;DHT22;479;53.514;9.994;2024-01-30T05:05:24;3.50;99.90
981;DHT22;479;53.514;9.994;2024-01-30T05:07:51;3.40;99.90
981;DHT22;479;53.514;9.994;2024-01-30T05:10:18;3.40;99.90
981;DHT22;479;53.514;9.994;2024-01-30T05:12:44;3.30;99.90
981;DHT22;479;53.514;9.994;2024-01-30T05:15:13;3.30;99.90
981;DHT22;479;53.514;9.994;2024-01-30T05:17:40;3.30;99.90
981;DHT22;479;53.514;9.994;2024-01-30T05:20:08;3.30;99.90
981;DHT22;479;53.514;9.994;2024-01-30T05:22:36;3.20;99.90
981;DHT22;479;53.514;9.994;2024-01-30T05:25:04;3.30;99.90
981;DHT22;479;53.514;9.994;2024-01-30T05:27:31;3.30;99.90
981;DHT22;479;53.514;9.994;2024-01-30T05:29:59;3.40;99.90
981;DHT22;479;53.514;9.994;2024-01-30T05:32:27;3.40;99.90
981;DHT22;479;53.514;9.994;2024-01-30T05:34:55;3.40;99.90
981;DHT22;479;53.514;9.994;2024-01-30T05:37:22;3.50;99.90
981;DHT22;479;53.514;9.994;2024-01-30T05:39:50;3.50;99.90
981;DHT22;479;53.514;9.994;2024-01-30T05:42:17;3.40;99.90
981;DHT22;479;53.514;9.994;2024-01-30T05:44:44;3.40;99.90
981;DHT22;479;53.514;9.994;2024-01-30T05:47:11;3.50;99.90
981;DHT22;479;53.514;9.994;2024-01-30T05:49:40;3.40;99.90
981;DHT22;479;53.514;9.994;2024-01-30T05:52:07;3.50;99.90
981;DHT22;479;53.514;9.994;2024-01-30T05:54:35;3.50;99.90
981;DHT22;479;53.514;9.994;2024-01-30T05:57:02;3.50;99.90
981;DHT22;479;53.514;9.994;2024-01-30T05:59:29;3.50;99.90
981;DHT22;479;53.514;9.994;2024-01-30T06:01:58;3.50;99.90
981;DHT22;479;53.514;9.994;2024-01-30T06:04:25;3.50;99.90
981;DHT22;479;53.514;9.994;2024-01-30T06:06:53;3.50;99.90
981;DHT22;479;53.514;9.994;2024-01-30T06:09:21;3.50;99.90
981;DHT22;479;53.514;9.994;2024-01-30T06:11:48;3.60;99.90
981;DHT22;479;53.514;9.994;2024-01-30T06:14:15;3.60;99.90
981;DHT22;479;53.514;9.994;2024-01-30T06:16:42;3.60;99.90
981;DHT22;479;53.514;9.994;2024-01-30T06:19:09;3.60;99.90
981;DHT22;479;53.514;9.994;2024-01-30T06:21:36;3.70;99.90
981;DHT22;479;53.514;9.994;2024-01-30T06:24:05;3.70;99.90
981;DHT22;479;53.514;9.994;2024-01-30T06:26:32;3.80;99.90
981;DHT22;479;53.514;9.994;2024-01-30T06:28:59;3.80;99.90
981;DHT22;479;53.514;9.994;2024-01-30T06:31:26;3.90;99.90
981;DHT22;479;53.514;9.994;2024-01-30T06:33:53;4.00;99.90
981;DHT22;479;53.514;9.994;2024-01-30T06:36:20;4.00;99.90
981;DHT22;479;53.514;9.994;2024-01-30T06:38:49;4.10;99.90
981;DHT22;479;53.514;9.994;2024-01-30T06:41:17;4.10;99.90
981;DHT22;479;53.514;9.994;2024-01-30T06:43:44;4.20;99.90
981;DHT22;479;53.514;9.994;2024-01-30T06:46:11;4.20;99.90
981;DHT22;479;53.514;9.994;2024-01-30T06:48:39;4.20;99.90
981;DHT22;479;53.514;9.994;2024-01-30T06:51:07;4.20;99.90
981;DHT22;479;53.514;9.994;2024-01-30T06:53:34;4.30;99.90
981;DHT22;479;53.514;9.994;2024-01-30T06:56:01;4.30;99.90
981;DHT22;479;53.514;9.994;2024-01-30T06:58:30;4.30;99.90
981;DHT22;479;53.514;9.994;2024-01-30T07:00:58;4.30;99.90
981;DHT22;479;53.514;9.994;2024-01-30T07:03:25;4.30;99.90
981;DHT22;479;53.514;9.994;2024-01-30T07:05:52;4.30;99.90
981;DHT22;479;53.514;9.994;2024-01-30T07:08:19;4.20;99.90
981;DHT22;479;53.514;9.994;2024-01-30T07:10:46;4.20;99.90
981;DHT22;479;53.514;9.994;2024-01-30T07:13:13;4.20;99.90
981;DHT22;479;53.514;9.994;2024-01-30T07:15:43;4.10;99.90
981;DHT22;479;53.514;9.994;2024-01-30T07:18:10;4.10;99.90
981;DHT22;479;53.514;9.994;2024-01-30T07:20:39;4.10;99.90
981;DHT22;479;53.514;9.994;2024-01-30T07:23:12;4.10;99.90
981;DHT22;479;53.514;9.994;2024-01-30T07:25:41;4.10;99.90
981;DHT22;479;53.514;9.994;2024-01-30T07:28:09;4.20;99.90
981;DHT22;479;53.514;9.994;2024-01-30T07:30:36;4.20;99.90
981;DHT22;479;53.514;9.994;2024-01-30T07:33:05;4.30;99.90
981;DHT22;479;53.514;9.994;2024-01-30T07:35:32;4.40;99.90
981;DHT22;479;53.514;9.994;2024-01-30T07:37:59;4.40;99.90
981;DHT22;479;53.514;9.994;2024-01-30T07:40:26;4.40;99.90
981;DHT22;479;53.514;9.994;2024-01-30T07:42:53;4.40;99.90
981;DHT22;479;53.514;9.994;2024-01-30T07:45:20;4.40;99.90
981;DHT22;479;53.514;9.994;2024-01-30T07:47:50;4.50;99.90
981;DHT22;479;53.514;9.994;2024-01-30T07:50:18;4.60;99.90
981;DHT22;479;53.514;9.994;2024-01-30T07:52:45;4.70;99.90
981;DHT22;479;53.514;9.994;2024-01-30T07:58:39;4.80;99.90
981;DHT22;479;53.514;9.994;2024-01-30T08:01:06;4.80;99.90
981;DHT22;479;53.514;9.994;2024-01-30T08:03:33;4.80;99.90
981;DHT22;479;53.514;9.994;2024-01-30T08:06:03;5.00;99.90
981;DHT22;479;53.514;9.994;2024-01-30T08:08:30;5.10;99.90
981;DHT22;479;53.514;9.994;2024-01-30T08:10:57;5.20;99.90
981;DHT22;479;53.514;9.994;2024-01-30T08:13:24;5.20;99.90
981;DHT22;479;53.514;9.994;2024-01-30T08:15:51;5.40;99.90
981;DHT22;479;53.514;9.994;2024-01-30T08:18:18;5.50;99.90
981;DHT22;479;53.514;9.994;2024-01-30T08:20:45;5.60;99.90
981;DHT22;479;53.514;9.994;2024-01-30T08:23:13;5.60;99.90
981;DHT22;479;53.514;9.994;2024-01-30T08:25:40;5.70;99.90
981;DHT22;479;53.514;9.994;2024-01-30T08:28:07;5.90;99.90
981;DHT22;479;53.514;9.994;2024-01-30T08:30:34;5.90;99.90
981;DHT22;479;53.514;9.994;2024-01-30T08:33:01;6.00;99.90
981;DHT22;479;53.514;9.994;2024-01-30T08:35:28;6.00;99.90
981;DHT22;479;53.514;9.994;2024-01-30T08:37:57;6.00;99.90
981;DHT22;479;53.514;9.994;2024-01-30T08:40:25;6.00;99.90
981;DHT22;479;53.514;9.994;2024-01-30T08:42:52;6.00;99.90
981;DHT22;479;53.514;9.994;2024-01-30T08:45:19;6.00;99.90
981;DHT22;479;53.514;9.994;2024-01-30T08:47:46;5.90;99.90
981;DHT22;479;53.514;9.994;2024-01-30T08:50:14;5.90;99.90
981;DHT22;479;53.514;9.994;2024-01-30T08:52:41;6.00;99.90
981;DHT22;479;53.514;9.994;2024-01-30T08:55:08;6.10;99.90
981;DHT22;479;53.514;9.994;2024-01-30T08:57:38;6.30;99.90
981;DHT22;479;53.514;9.994;2024-01-30T09:00:06;6.80;99.90
981;DHT22;479;53.514;9.994;2024-01-30T09:02:35;7.10;99.90
981;DHT22;479;53.514;9.994;2024-01-30T09:05:02;7.40;99.90
981;DHT22;479;53.514;9.994;2024-01-30T09:07:29;7.60;99.90
981;DHT22;479;53.514;9.994;2024-01-30T09:09:56;7.40;99.90
981;DHT22;479;53.514;9.994;2024-01-30T09:12:23;7.30;99.90
981;DHT22;479;53.514;9.994;2024-01-30T09:14:51;7.40;99.90
981;DHT22;479;53.514;9.994;2024-01-30T09:17:19;7.70;99.90
981;DHT22;479;53.514;9.994;2024-01-30T09:19:46;8.00;99.90
981;DHT22;479;53.514;9.994;2024-01-30T09:22:13;8.00;99.90
981;DHT22;479;53.514;9.994;2024-01-30T09:24:40;7.90;99.90
981;DHT22;479;53.514;9.994;2024-01-30T09:27:07;7.80;99.90
981;DHT22;479;53.514;9.994;2024-01-30T09:29:34;7.70;99.90
981;DHT22;479;53.514;9.994;2024-01-30T09:32:04;7.70;99.90
981;DHT22;479;53.514;9.994;2024-01-30T09:34:31;7.60;99.90
981;DHT22;479;53.514;9.994;2024-01-30T09:36:58;7.60;99.90
981;DHT22;479;53.514;9.994;2024-01-30T09:39:26;7.60;99.90
981;DHT22;479;53.514;9.994;2024-01-30T09:42:00;7.70;99.90
981;DHT22;479;53.514;9.994;2024-01-30T09:44:29;7.70;99.90
981;DHT22;479;53.514;9.994;2024-01-30T09:46:56;7.60;99.90
981;DHT22;479;53.514;9.994;2024-01-30T09:49:26;7.70;99.90
981;DHT22;479;53.514;9.994;2024-01-30T09:51:53;7.80;99.90
981;DHT22;479;53.514;9.994;2024-01-30T09:54:21;7.70;99.90
981;DHT22;479;53.514;9.994;2024-01-30T09:56:48;7.90;99.90
981;DHT22;479;53.514;9.994;2024-01-30T09:59:15;7.90;99.90
981;DHT22;479;53.514;9.994;2024-01-30T10:01:43;8.10;99.90
981;DHT22;479;53.514;9.994;2024-01-30T10:04:10;8.40;99.90
981;DHT22;479;53.514;9.994;2024-01-30T10:06:40;8.40;99.90
981;DHT22;479;53.514;9.994;2024-01-30T10:09:07;8.30;99.90
981;DHT22;479;53.514;9.994;2024-01-30T10:11:35;8.10;99.90
981;DHT22;479;53.514;9.994;2024-01-30T10:14:05;8.10;99.90
981;DHT22;479;53.514;9.994;2024-01-30T10:16:31;8.10;99.90
981;DHT22;479;53.514;9.994;2024-01-30T10:18:59;8.30;99.90
981;DHT22;479;53.514;9.994;2024-01-30T10:21:26;8.30;99.90
981;DHT22;479;53.514;9.994;2024-01-30T10:23:54;8.50;99.90
981;DHT22;479;53.514;9.994;2024-01-30T10:26:21;8.60;99.90
981;DHT22;479;53.514;9.994;2024-01-30T10:28:49;8.60;99.90
981;DHT22;479;53.514;9.994;2024-01-30T10:31:17;8.70;99.90
981;DHT22;479;53.514;9.994;2024-01-30T10:33:44;8.60;99.90
981;DHT22;479;53.514;9.994;2024-01-30T10:36:13;8.70;99.90
981;DHT22;479;53.514;9.994;2024-01-30T10:38:42;8.90;99.90
981;DHT22;479;53.514;9.994;2024-01-30T10:41:15;9.00;99.90
981;DHT22;479;53.514;9.994;2024-01-30T10:43:50;9.10;99.90
981;DHT22;479;53.514;9.994;2024-01-30T10:46:20;9.00;99.90
981;DHT22;479;53.514;9.994;2024-01-30T10:48:58;8.90;99.90
981;DHT22;479;53.514;9.994;2024-01-30T10:51:26;9.00;99.90
981;DHT22;479;53.514;9.994;2024-01-30T10:53:53;9.00;99.90
981;DHT22;479;53.514;9.994;2024-01-30T10:56:24;9.00;99.90
981;DHT22;479;53.514;9.994;2024-01-30T10:58:52;9.10;99.90
981;DHT22;479;53.514;9.994;2024-01-30T11:01:20;9.00;99.90
981;DHT22;479;53.514;9.994;2024-01-30T11:03:49;9.00;99.90
981;DHT22;479;53.514;9.994;2024-01-30T11:06:18;9.10;99.90
981;DHT22;479;53.514;9.994;2024-01-30T11:08:46;9.20;99.90
981;DHT22;479;53.514;9.994;2024-01-30T11:11:12;9.30;99.90
981;DHT22;479;53.514;9.994;2024-01-30T11:13:41;9.30;99.90
981;DHT22;479;53.514;9.994;2024-01-30T11:16:11;9.20;99.90
981;DHT22;479;53.514;9.994;2024-01-30T11:18:38;9.20;99.90
981;DHT22;479;53.514;9.994;2024-01-30T11:21:05;9.10;99.90
981;DHT22;479;53.514;9.994;2024-01-30T11:23:34;9.00;99.90
981;DHT22;479;53.514;9.994;2024-01-30T11:26:01;9.00;99.90
981;DHT22;479;53.514;9.994;2024-01-30T11:28:35;9.00;99.90
981;DHT22;479;53.514;9.994;2024-01-30T11:31:08;9.10;99.90
981;DHT22;479;53.514;9.994;2024-01-30T11:33:37;9.20;99.90
981;DHT22;479;53.514;9.994;2024-01-30T11:36:04;9.30;99.90
981;DHT22;479;53.514;9.994;2024-01-30T11:38:32;9.40;99.90
981;DHT22;479;53.514;9.994;2024-01-30T11:41:00;9.40;99.90
981;DHT22;479;53.514;9.994;2024-01-30T11:43:28;9.40;99.90
981;DHT22;479;53.514;9.994;2024-01-30T11:45:55;9.40;99.90
981;DHT22;479;53.514;9.994;2024-01-30T11:48:23;9.40;99.90
981;DHT22;479;53.514;9.994;2024-01-30T11:50:50;9.40;99.90
981;DHT22;479;53.514;9.994;2024-01-30T11:53:17;9.30;99.90
981;DHT22;479;53.514;9.994;2024-01-30T11:55:49;9.40;99.90
981;DHT22;479;53.514;9.994;2024-01-30T11:58:16;9.40;99.90
981;DHT22;479;53.514;9.994;2024-01-30T12:00:53;9.50;99.90
981;DHT22;479;53.514;9.994;2024-01-30T12:03:20;9.50;99.90
981;DHT22;479;53.514;9.994;2024-01-30T12:05:55;9.60;99.90
981;DHT22;479;53.514;9.994;2024-01-30T12:08:22;9.70;99.90
981;DHT22;479;53.514;9.994;2024-01-30T12:10:55;9.80;99.90
981;DHT22;479;53.514;9.994;2024-01-30T12:13:23;9.90;99.90
981;DHT22;479;53.514;9.994;2024-01-30T12:15:50;9.80;99.90
981;DHT22;479;53.514;9.994;2024-01-30T12:18:18;10.00;99.90
981;DHT22;479;53.514;9.994;2024-01-30T12:20:57;10.00;99.90
981;DHT22;479;53.514;9.994;2024-01-30T12:23:25;10.00;99.90
981;DHT22;479;53.514;9.994;2024-01-30T12:25:52;10.00;99.90
981;DHT22;479;53.514;9.994;2024-01-30T12:28:19;10.00;99.90
981;DHT22;479;53.514;9.994;2024-01-30T12:30:47;10.10;99.90
981;DHT22;479;53.514;9.994;2024-01-30T12:33:16;10.20;99.90
981;DHT22;479;53.514;9.994;2024-01-30T12:35:45;10.40;99.90
981;DHT22;479;53.514;9.994;2024-01-30T12:38:14;10.50;99.90
981;DHT22;479;53.514;9.994;2024-01-30T12:40:41;10.60;99.90
981;DHT22;479;53.514;9.994;2024-01-30T12:43:08;10.60;99.90
981;DHT22;479;53.514;9.994;2024-01-30T12:45:36;10.60;99.90
981;DHT22;479;53.514;9.994;2024-01-30T12:48:06;10.60;99.90
981;DHT22;479;53.514;9.994;2024-01-30T12:50:33;10.60;99.90
981;DHT22;479;53.514;9.994;2024-01-30T12:53:00;10.60;99.90
981;DHT22;479;53.514;9.994;2024-01-30T12:55:28;10.70;99.90
981;DHT22;479;53.514;9.994;2024-01-30T12:57:56;10.70;99.90
981;DHT22;479;53.514;9.994;2024-01-30T13:00:22;10.80;99.90
981;DHT22;479;53.514;9.994;2024-01-30T13:02:50;10.80;99.90
981;DHT22;479;53.514;9.994;2024-01-30T13:05:17;10.70;99.90
981;DHT22;479;53.514;9.994;2024-01-30T13:07:44;10.70;99.90
981;DHT22;479;53.514;9.994;2024-01-30T13:10:11;10.60;99.90
981;DHT22;479;53.514;9.994;2024-01-30T13:12:42;10.60;99.90
981;DHT22;479;53.514;9.994;2024-01-30T13:15:09;10.60;99.90
981;DHT22;479;53.514;9.994;2024-01-30T13:17:37;10.50;99.90
981;DHT22;479;53.514;9.994;2024-01-30T13:20:06;10.50;99.90
981;DHT22;479;53.514;9.994;2024-01-30T13:22:34;10.50;99.90
981;DHT22;479;53.514;9.994;2024-01-30T13:25:00;10.50;99.90
981;DHT22;479;53.514;9.994;2024-01-30T13:27:27;10.50;99.90
981;DHT22;479;53.514;9.994;2024-01-30T13:29:56;10.50;99.90
981;DHT22;479;53.514;9.994;2024-01-30T13:32:23;10.40;99.90
981;DHT22;479;53.514;9.994;2024-01-30T13:34:50;10.40;99.90
981;DHT22;479;53.514;9.994;2024-01-30T13:37:17;10.60;99.90
981;DHT22;479;53.514;9.994;2024-01-30T13:39:44;10.50;99.90
981;DHT22;479;53.514;9.994;2024-01-30T13:42:11;10.50;99.90
981;DHT22;479;53.514;9.994;2024-01-30T13:44:38;10.50;99.90
981;DHT22;479;53.514;9.994;2024-01-30T13:47:07;10.50;99.90
981;DHT22;479;53.514;9.994;2024-01-30T13:49:33;10.50;99.90
981;DHT22;479;53.514;9.994;2024-01-30T13:52:00;10.50;99.90
981;DHT22;479;53.514;9.994;2024-01-30T13:54:29;10.50;99.90
981;DHT22;479;53.514;9.994;2024-01-30T13:56:56;10.50;99.90
981;DHT22;479;53.514;9.994;2024-01-30T13:59:24;10.50;99.90
981;DHT22;479;53.514;9.994;2024-01-30T14:01:51;10.50;99.90
981;DHT22;479;53.514;9.994;2024-01-30T14:04:20;10.50;99.90
981;DHT22;479;53.514;9.994;2024-01-30T14:06:47;10.50;99.90
981;DHT22;479;53.514;9.994;2024-01-30T14:09:14;10.60;99.90
981;DHT22;479;53.514;9.994;2024-01-30T14:11:41;10.50;99.90
981;DHT22;479;53.514;9.994;2024-01-30T14:14:09;10.60;99.90
981;DHT22;479;53.514;9.994;2024-01-30T14:16:37;10.50;99.90
981;DHT22;479;53.514;9.994;2024-01-30T14:19:03;10.50;99.90
981;DHT22;479;53.514;9.994;2024-01-30T14:21:32;10.50;99.90
981;DHT22;479;53.514;9.994;2024-01-30T14:23:59;10.50;99.90
981;DHT22;479;53.514;9.994;2024-01-30T14:26:25;10.50;99.90
981;DHT22;479;53.514;9.994;2024-01-30T14:28:52;10.50;99.90
981;DHT22;479;53.514;9.994;2024-01-30T14:31:21;10.50;99.90
981;DHT22;479;53.514;9.994;2024-01-30T14:33:50;10.50;99.90
981;DHT22;479;53.514;9.994;2024-01-30T14:36:17;10.50;99.90
981;DHT22;479;53.514;9.994;2024-01-30T14:38:47;10.50;99.90
981;DHT22;479;53.514;9.994;2024-01-30T14:41:14;10.50;99.90
981;DHT22;479;53.514;9.994;2024-01-30T14:43:41;10.60;99.90
981;DHT22;479;53.514;9.994;2024-01-30T14:46:08;10.60;99.90
981;DHT22;479;53.514;9.994;2024-01-30T14:48:35;10.60;99.90
981;DHT22;479;53.514;9.994;2024-01-30T14:51:02;10.60;99.90
981;DHT22;479;53.514;9.994;2024-01-30T14:53:29;10.60;99.90
981;DHT22;479;53.514;9.994;2024-01-30T14:55:58;10.60;99.90
981;DHT22;479;53.514;9.994;2024-01-30T14:58:25;10.60;99.90
981;DHT22;479;53.514;9.994;2024-01-30T15:00:52;10.70;99.90
981;DHT22;479;53.514;9.994;2024-01-30T15:03:19;10.70;99.90
981;DHT22;479;53.514;9.994;2024-01-30T15:05:46;10.70;99.90
981;DHT22;479;53.514;9.994;2024-01-30T15:08:13;10.70;99.90
981;DHT22;479;53.514;9.994;2024-01-30T15:10:40;10.70;99.90
981;DHT22;479;53.514;9.994;2024-01-30T15:13:12;10.70;99.90
981;DHT22;479;53.514;9.994;2024-01-30T15:15:39;10.70;99.90
981;DHT22;479;53.514;9.994;2024-01-30T15:18:08;10.70;99.90
981;DHT22;479;53.514;9.994;2024-01-30T15:20:36;10.70;99.90
981;DHT22;479;53.514;9.994;2024-01-30T15:23:04;10.70;99.90
981;DHT22;479;53.514;9.994;2024-01-30T15:25:32;10.70;99.90
981;DHT22;479;53.514;9.994;2024-01-30T15:28:01;10.80;99.90
981;DHT22;479;53.514;9.994;2024-01-30T15:30:30;10.80;99.90
981;DHT22;479;53.514;9.994;2024-01-30T15:32:58;10.80;99.90
981;DHT22;479;53.514;9.994;2024-01-30T15:35:25;10.80;99.90
981;DHT22;479;53.514;9.994;2024-01-30T15:37:52;10.80;99.90
981;DHT22;479;53.514;9.994;2024-01-30T15:40:19;10.80;99.90
981;DHT22;479;53.514;9.994;2024-01-30T15:42:47;10.80;99.90
981;DHT22;479;53.514;9.994;2024-01-30T15:45:15;10.80;99.90
981;DHT22;479;53.514;9.994;2024-01-30T15:47:43;10.80;99.90
981;DHT22;479;53.514;9.994;2024-01-30T15:50:11;10.70;99.90
981;DHT22;479;53.514;9.994;2024-01-30T15:52:39;10.70;99.90
981;DHT22;479;53.514;9.994;2024-01-30T15:55:07;10.70;99.90
981;DHT22;479;53.514;9.994;2024-01-30T15:57:34;10.70;99.90
981;DHT22;479;53.514;9.994;2024-01-30T16:00:01;10.70;99.90
981;DHT22;479;53.514;9.994;2024-01-30T16:02:37;10.70;99.90
981;DHT22;479;53.514;9.994;2024-01-30T16:05:07;10.70;99.90
981;DHT22;479;53.514;9.994;2024-01-30T16:07:34;10.60;99.90
981;DHT22;479;53.514;9.994;2024-01-30T16:10:21;10.60;99.90
981;DHT22;479;53.514;9.994;2024-01-30T16:13:07;10.50;99.90
981;DHT22;479;53.514;9.994;2024-01-30T16:15:54;10.50;99.90
981;DHT22;479;53.514;9.994;2024-01-30T16:18:43;10.40;99.90
981;DHT22;479;53.514;9.994;2024-01-30T16:21:32;10.40;99.90
981;DHT22;479;53.514;9.994;2024-01-30T16:24:18;10.40;99.90
981;DHT22;479;53.514;9.994;2024-01-30T16:27:07;10.40;99.90
981;DHT22;479;53.514;9.994;2024-01-30T16:29:52;10.40;99.90
981;DHT22;479;53.514;9.994;2024-01-30T16:32:39;10.40;99.90
981;DHT22;479;53.514;9.994;2024-01-30T16:35:25;10.40;99.90
981;DHT22;479;53.514;9.994;2024-01-30T16:38:13;10.40;99.90
981;DHT22;479;53.514;9.994;2024-01-30T16:41:03;10.50;99.90
981;DHT22;479;53.514;9.994;2024-01-30T16:43:48;10.50;99.90
981;DHT22;479;53.514;9.994;2024-01-30T16:46:34;10.50;99.90
981;DHT22;479;53.514;9.994;2024-01-30T16:49:22;10.60;99.90
981;DHT22;479;53.514;9.994;2024-01-30T16:52:07;10.60;99.90
981;DHT22;479;53.514;9.994;2024-01-30T16:54:54;10.50;99.90
981;DHT22;479;53.514;9.994;2024-01-30T16:57:40;10.60;99.90